Time;durP1;ratioP1;P1;durP2;ratioP2;P2;SDS_P1;SDS_P2;PMS_P1;PMS_P2;Temp;Humidity;BMP_temperature;BMP_pressure;BME280_temperature;BME280_humidity;BME280_pressure;Samples;Min_cycle;Max_cycle;Signal;HPM_P1;HPM_P2
2021/05/06 00:33:56;;;;;;;0.47;0.30;;;4.40;99.90;;;;;;5102874;28;20181;-58
2021/05/06 00:36:22;;;;;;;0.43;0.20;;;4.40;99.90;;;;;;5093555;28;20197;-59
2021/05/06 00:38:54;;;;;;;0.20;0.10;;;4.40;99.90;;;;;;5094394;28;20199;-59
2021/05/06 00:54:30;;;;;;;0.32;0.20;;;4.30;99.90;;;;;;5108489;28;20172;-60
2021/05/06 00:59:51;;;;;;;0.20;0.20;;;4.30;99.90;;;;;;5098644;28;20169;-60
2021/05/06 01:05:19;;;;;;;0.30;0.17;;;4.30;99.90;;;;;;5109146;28;20535;-60
2021/05/06 01:12:53;;;;;;;0.25;0.20;;;4.30;99.90;;;;;;5097447;28;20193;-60
2021/05/06 01:15:19;;;;;;;0.40;0.10;;;4.20;99.90;;;;;;5100403;28;20172;-60
2021/05/06 01:17:46;;;;;;;1.98;0.20;;;4.20;99.90;;;;;;5094283;28;20645;-60
2021/05/06 01:20:13;;;;;;;0.47;0.30;;;4.30;99.90;;;;;;5098350;28;20181;-60
2021/05/06 01:22:39;;;;;;;0.20;0.10;;;4.30;99.90;;;;;;5102310;28;20220;-60
2021/05/06 01:25:05;;;;;;;0.20;0.20;;;4.30;99.90;;;;;;5100368;28;20626;-60
2021/05/06 01:30:46;;;;;;;1.80;0.15;;;4.30;99.90;;;;;;5098448;28;20192;-60
2021/05/06 01:32:53;;;;;;;0.10;0.10;;;4.30;99.90;;;;;;5085818;28;20185;-60
2021/05/06 01:35:30;;;;;;;1.17;0.20;;;4.30;99.90;;;;;;5095276;28;20209;-60
2021/05/06 01:59:03;;;;;;;0.20;0.13;;;4.30;99.90;;;;;;5103817;28;20165;-59
2021/05/06 02:01:29;;;;;;;0.57;0.20;;;4.30;99.90;;;;;;5093932;28;20203;-59
2021/05/06 02:03:55;;;;;;;0.70;0.25;;;4.30;99.90;;;;;;5094665;28;20221;-59
2021/05/06 02:06:21;;;;;;;0.40;0.32;;;4.30;99.90;;;;;;5095070;28;20189;-59
2021/05/06 02:08:47;;;;;;;0.40;0.30;;;4.30;99.90;;;;;;5097212;28;20184;-61
2021/05/06 02:11:14;;;;;;;0.30;0.20;;;4.30;99.90;;;;;;5095093;28;20601;-60
2021/05/06 02:13:40;;;;;;;0.63;0.50;;;4.30;99.90;;;;;;5098432;28;20537;-60
2021/05/06 02:16:15;;;;;;;0.57;0.35;;;4.30;99.90;;;;;;5094512;28;20202;-60
2021/05/06 02:18:41;;;;;;;0.22;0.22;;;4.30;99.90;;;;;;5100696;28;20169;-60
2021/05/06 02:21:10;;;;;;;0.57;0.45;;;4.30;99.90;;;;;;5091525;28;20641;-60
2021/05/06 02:23:37;;;;;;;0.40;0.35;;;4.30;99.90;;;;;;5093451;28;20208;-60
2021/05/06 02:26:03;;;;;;;0.68;0.57;;;4.30;99.90;;;;;;5090179;28;20656;-60
2021/05/06 02:28:29;;;;;;;0.50;0.40;;;4.20;99.90;;;;;;5090365;28;20193;-60
2021/05/06 02:30:56;;;;;;;0.98;0.30;;;4.30;99.90;;;;;;5096251;28;20520;-59
2021/05/06 02:33:22;;;;;;;0.22;0.22;;;4.30;99.90;;;;;;5092408;28;20188;-59
2021/05/06 02:35:48;;;;;;;0.38;0.30;;;4.30;99.90;;;;;;5099492;28;20683;-59
2021/05/06 02:38:14;;;;;;;0.70;0.40;;;4.20;99.90;;;;;;5097881;28;20177;-59
2021/05/06 02:40:40;;;;;;;0.68;0.30;;;4.20;99.90;;;;;;5098841;28;20172;-60
2021/05/06 02:43:06;;;;;;;1.15;0.30;;;4.20;99.90;;;;;;5096655;28;20204;-60
2021/05/06 02:45:32;;;;;;;0.38;0.38;;;4.20;99.90;;;;;;5094017;28;20208;-61
2021/05/06 02:47:59;;;;;;;2.35;0.50;;;4.20;99.90;;;;;;5099551;28;20173;-61
2021/05/06 02:50:25;;;;;;;1.25;0.43;;;4.20;99.90;;;;;;5097096;28;20188;-60
2021/05/06 02:53:00;;;;;;;1.55;0.40;;;4.20;99.90;;;;;;5090806;28;20814;-60
2021/05/06 02:58:08;;;;;;;0.90;0.50;;;4.20;99.90;;;;;;5103284;28;20196;-61
2021/05/06 03:03:20;;;;;;;1.13;0.40;;;4.20;99.90;;;;;;5068874;28;20233;-60
2021/05/06 03:05:52;;;;;;;1.20;0.50;;;4.20;99.90;;;;;;5096714;28;20195;-61
2021/05/06 03:08:23;;;;;;;0.55;0.55;;;4.20;99.90;;;;;;5092997;28;20181;-61
2021/05/06 03:11:20;;;;;;;0.77;0.50;;;4.20;99.90;;;;;;5100118;28;20161;-60
2021/05/06 03:24:25;;;;;;;1.02;0.60;;;4.30;99.90;;;;;;5090584;28;20195;-60
2021/05/06 03:26:51;;;;;;;1.33;0.60;;;4.20;99.90;;;;;;5092877;28;20171;-60
2021/05/06 03:29:25;;;;;;;0.65;0.50;;;4.20;99.90;;;;;;5094704;28;20184;-60
2021/05/06 03:42:52;;;;;;;0.43;0.43;;;4.10;99.90;;;;;;5094097;28;20212;-60
2021/05/06 04:37:52;;;;;;;4.63;1.48;;;4.40;99.90;;;;;;5101808;28;20165;-59
2021/05/06 04:55:56;;;;;;;8.00;1.70;;;4.40;99.90;;;;;;5080937;28;20184;-59
2021/05/06 05:06:31;;;;;;;1.30;0.98;;;4.30;99.90;;;;;;5073487;28;20657;-60
2021/05/06 05:25:04;;;;;;;2.38;1.70;;;4.40;99.90;;;;;;5100892;28;20546;-59
2021/05/06 05:27:31;;;;;;;2.58;1.67;;;4.30;99.90;;;;;;5095414;28;20558;-60
2021/05/06 05:29:57;;;;;;;2.55;2.00;;;4.30;99.90;;;;;;5102852;28;20560;-60
2021/05/06 05:32:23;;;;;;;2.75;1.70;;;4.20;99.90;;;;;;5099757;28;20181;-60
2021/05/06 05:37:22;;;;;;;2.78;1.70;;;4.10;99.90;;;;;;5104898;28;20180;-59
2021/05/06 05:55:27;;;;;;;7.18;2.05;;;3.90;99.90;;;;;;5076438;28;20181;-60
2021/05/06 05:57:53;;;;;;;3.42;2.40;;;3.90;99.90;;;;;;5080457;28;20181;-60
2021/05/06 06:00:20;;;;;;;3.70;2.17;;;3.90;99.90;;;;;;5081689;28;20534;-60
2021/05/06 06:02:46;;;;;;;3.47;1.80;;;4.00;99.90;;;;;;5087465;28;20213;-61
2021/05/06 06:05:12;;;;;;;3.15;2.10;;;4.00;99.90;;;;;;5085629;28;20165;-60
2021/05/06 06:07:38;;;;;;;2.72;1.85;;;4.00;99.90;;;;;;5085856;28;20192;-61
2021/05/06 06:10:05;;;;;;;5.25;1.88;;;4.10;99.90;;;;;;5084224;28;20178;-60
2021/05/06 06:12:31;;;;;;;3.58;1.73;;;4.10;99.90;;;;;;5084328;28;20193;-61
2021/05/06 06:15:06;;;;;;;3.85;2.00;;;4.10;99.90;;;;;;5081150;28;20178;-61
2021/05/06 06:17:41;;;;;;;4.15;2.15;;;4.10;99.90;;;;;;5091558;28;20544;-61
2021/05/06 06:20:08;;;;;;;6.18;2.40;;;4.20;99.90;;;;;;5093492;28;20191;-60
2021/05/06 06:22:34;;;;;;;2.67;2.22;;;4.20;99.90;;;;;;5091645;28;20228;-60
2021/05/06 06:25:02;;;;;;;3.05;1.95;;;4.20;99.90;;;;;;5091650;28;20177;-61
2021/05/06 06:27:31;;;;;;;4.38;2.22;;;4.20;99.90;;;;;;5092754;28;20185;-60
2021/05/06 06:29:58;;;;;;;4.90;2.50;;;4.20;99.90;;;;;;5094997;28;20182;-61
2021/05/06 06:32:24;;;;;;;3.92;2.70;;;4.20;99.90;;;;;;5092751;28;20176;-60
2021/05/06 06:34:51;;;;;;;4.57;2.72;;;4.20;99.90;;;;;;5091094;28;20217;-61
2021/05/06 06:37:17;;;;;;;7.80;2.95;;;4.30;99.90;;;;;;5091652;28;20173;-60
2021/05/06 06:39:43;;;;;;;4.90;2.72;;;4.40;99.90;;;;;;5091270;28;20188;-61
2021/05/06 06:42:10;;;;;;;2.47;1.67;;;4.50;99.90;;;;;;5097226;28;20209;-61
2021/05/06 06:44:36;;;;;;;2.70;1.90;;;4.60;99.90;;;;;;5090972;28;20659;-60
2021/05/06 06:47:06;;;;;;;5.70;1.70;;;4.50;99.90;;;;;;5090349;28;20173;-61
2021/05/06 06:49:34;;;;;;;2.42;1.60;;;4.50;99.90;;;;;;5084164;28;20177;-61
2021/05/06 06:52:00;;;;;;;5.57;1.98;;;4.60;99.90;;;;;;5091033;28;20177;-61
2021/05/06 06:54:27;;;;;;;5.82;1.20;;;4.60;99.90;;;;;;5091889;28;20173;-61
2021/05/06 06:56:54;;;;;;;3.15;1.42;;;4.60;99.90;;;;;;5091707;28;20177;-61
2021/05/06 06:59:21;;;;;;;3.67;1.40;;;4.50;99.90;;;;;;5091599;28;20173;-61
2021/05/06 07:01:47;;;;;;;2.20;1.25;;;4.50;99.90;;;;;;5091943;28;20188;-60
2021/05/06 07:04:13;;;;;;;3.65;2.20;;;4.50;99.90;;;;;;5092053;28;20228;-61
2021/05/06 07:06:39;;;;;;;2.00;1.52;;;4.40;99.90;;;;;;5091972;28;20181;-61
2021/05/06 07:09:08;;;;;;;4.85;2.40;;;4.40;99.90;;;;;;5090699;28;20608;-61
2021/05/06 07:11:37;;;;;;;4.03;2.40;;;4.30;99.90;;;;;;5084089;28;20622;-61
2021/05/06 07:14:04;;;;;;;5.95;1.70;;;4.40;99.90;;;;;;5091696;28;20889;-61
2021/05/06 07:16:30;;;;;;;3.00;2.35;;;4.40;99.90;;;;;;5091707;28;20173;-61
2021/05/06 07:18:57;;;;;;;4.20;2.60;;;4.30;99.90;;;;;;5089800;28;20618;-61
2021/05/06 07:21:24;;;;;;;3.53;2.05;;;4.30;99.90;;;;;;5091884;28;20180;-61
2021/05/06 07:23:54;;;;;;;3.90;2.53;;;4.30;99.90;;;;;;5084037;28;20213;-61
2021/05/06 07:26:21;;;;;;;6.80;2.88;;;4.40;99.90;;;;;;5089603;28;20196;-60
2021/05/06 07:28:49;;;;;;;3.78;2.55;;;4.50;99.90;;;;;;5090467;28;20203;-61
2021/05/06 07:31:16;;;;;;;3.92;2.55;;;4.60;99.90;;;;;;5091168;28;20512;-61
2021/05/06 07:33:43;;;;;;;4.18;2.17;;;4.70;99.90;;;;;;5091640;28;20181;-61
2021/05/06 07:36:10;;;;;;;4.55;2.50;;;4.80;99.90;;;;;;5073590;28;20569;-61
2021/05/06 07:38:36;;;;;;;3.47;1.77;;;5.00;99.90;;;;;;5090068;28;20177;-60
2021/05/06 07:41:02;;;;;;;4.80;2.45;;;5.10;99.90;;;;;;5082943;28;20177;-61
2021/05/06 07:43:30;;;;;;;5.90;2.20;;;5.30;99.90;;;;;;5092028;28;20205;-60
2021/05/06 07:45:59;;;;;;;3.40;1.95;;;5.40;99.90;;;;;;5093212;28;20173;-60
2021/05/06 07:48:25;;;;;;;7.45;2.33;;;5.40;99.90;;;;;;5095741;28;20181;-61
2021/05/06 07:50:51;;;;;;;3.65;1.60;;;5.30;99.90;;;;;;5095106;28;20173;-60
2021/05/06 07:53:24;;;;;;;3.60;1.98;;;5.30;99.90;;;;;;5095796;28;20196;-60
2021/05/06 07:55:52;;;;;;;6.63;2.10;;;5.30;99.90;;;;;;5086443;28;20165;-61
2021/05/06 07:58:18;;;;;;;3.00;1.90;;;5.30;99.90;;;;;;5096010;28;20185;-61
2021/05/06 08:00:44;;;;;;;5.40;2.10;;;5.30;99.90;;;;;;5095278;28;20173;-61
2021/05/06 08:03:10;;;;;;;4.03;1.85;;;5.30;99.90;;;;;;5094801;28;20215;-61
2021/05/06 08:05:36;;;;;;;4.18;2.28;;;5.40;99.90;;;;;;5095446;28;20173;-61
2021/05/06 08:08:03;;;;;;;4.43;2.00;;;5.50;99.90;;;;;;5094963;28;20196;-61
2021/05/06 08:10:29;;;;;;;3.35;2.00;;;5.50;99.90;;;;;;5092686;28;20173;-61
2021/05/06 08:12:56;;;;;;;4.78;2.00;;;5.50;99.90;;;;;;5093163;28;20189;-60
2021/05/06 08:15:22;;;;;;;5.80;2.13;;;5.50;99.90;;;;;;5091428;28;20181;-61
2021/05/06 08:17:50;;;;;;;2.80;1.85;;;5.60;99.90;;;;;;5094449;28;20185;-61
2021/05/06 08:20:17;;;;;;;4.07;2.30;;;5.60;99.90;;;;;;5095114;28;20173;-61
2021/05/06 08:22:43;;;;;;;3.95;1.90;;;5.60;99.90;;;;;;5094317;28;20216;-61
2021/05/06 08:25:11;;;;;;;2.53;1.80;;;5.50;99.90;;;;;;5094429;28;20518;-61
2021/05/06 08:27:38;;;;;;;5.10;1.80;;;5.50;99.90;;;;;;5094653;28;20189;-61
2021/05/06 08:30:06;;;;;;;2.72;1.70;;;5.50;99.90;;;;;;5098323;28;20520;-61
2021/05/06 08:32:32;;;;;;;4.03;2.00;;;5.50;99.90;;;;;;5095200;28;20193;-61
2021/05/06 08:34:58;;;;;;;7.13;2.17;;;5.50;99.90;;;;;;5101866;28;20211;-61
2021/05/06 08:37:24;;;;;;;2.97;1.90;;;5.50;99.90;;;;;;5104859;28;20191;-65
2021/05/06 08:39:51;;;;;;;5.88;2.65;;;5.60;99.90;;;;;;5098979;28;20173;-61
2021/05/06 08:42:18;;;;;;;5.70;1.98;;;5.60;99.90;;;;;;5081197;28;20193;-61
2021/05/06 08:44:44;;;;;;;4.35;2.20;;;5.70;99.90;;;;;;5097419;28;20537;-60
2021/05/06 08:47:21;;;;;;;2.22;1.75;;;5.70;99.90;;;;;;5103120;28;20238;-61
2021/05/06 08:49:47;;;;;;;3.05;2.20;;;5.70;99.90;;;;;;5100017;28;20191;-61
2021/05/06 08:52:19;;;;;;;2.33;1.67;;;5.80;99.90;;;;;;5102274;28;20173;-61
2021/05/06 08:54:50;;;;;;;3.67;1.80;;;5.90;99.90;;;;;;5096981;28;20165;-61
2021/05/06 08:57:17;;;;;;;3.67;2.10;;;5.90;99.90;;;;;;5100835;28;20176;-61
2021/05/06 08:59:43;;;;;;;5.72;2.20;;;6.00;99.90;;;;;;5096935;28;20637;-61
2021/05/06 09:02:13;;;;;;;3.03;2.10;;;6.00;99.90;;;;;;5094419;28;20181;-61
2021/05/06 09:04:39;;;;;;;5.28;2.40;;;6.00;99.90;;;;;;5093578;28;20851;-61
2021/05/06 09:07:08;;;;;;;5.88;3.03;;;6.00;99.90;;;;;;5100385;28;20190;-61
2021/05/06 09:09:34;;;;;;;3.88;2.22;;;6.10;99.90;;;;;;5093980;28;20200;-61
2021/05/06 09:12:06;;;;;;;4.97;2.15;;;6.10;99.90;;;;;;5094416;28;20583;-61
2021/05/06 09:14:42;;;;;;;5.20;2.25;;;6.20;99.90;;;;;;5093572;28;20165;-61
2021/05/06 09:17:25;;;;;;;8.82;6.20;;;6.20;99.90;;;;;;5095350;28;20185;-61
2021/05/06 09:20:15;;;;;;;6.95;3.47;;;6.20;99.90;;;;;;5094263;28;20191;-61
2021/05/06 09:22:55;;;;;;;9.52;5.07;;;6.20;99.90;;;;;;5093789;28;20197;-61
2021/05/06 09:25:27;;;;;;;4.32;2.28;;;6.30;99.90;;;;;;5093359;28;20172;-61
2021/05/06 09:28:05;;;;;;;6.68;2.53;;;6.30;99.90;;;;;;5093023;28;20183;-61
2021/05/06 09:30:35;;;;;;;4.35;2.40;;;6.30;99.90;;;;;;5092362;28;20917;-61
2021/05/06 09:33:06;;;;;;;3.58;1.95;;;6.30;99.90;;;;;;5093730;28;20173;-60
2021/05/06 09:35:48;;;;;;;3.55;1.90;;;6.20;99.90;;;;;;5093105;28;20221;-60
2021/05/06 09:38:35;;;;;;;4.28;2.13;;;6.10;99.90;;;;;;5097499;28;20550;-60
2021/05/06 09:41:03;;;;;;;6.82;2.55;;;6.00;99.90;;;;;;5100750;28;20522;-60
2021/05/06 09:43:35;;;;;;;3.67;2.22;;;6.10;99.90;;;;;;5092575;28;20212;-60
2021/05/06 09:46:02;;;;;;;7.88;2.72;;;6.10;99.90;;;;;;5092049;28;20181;-63
2021/05/06 09:48:28;;;;;;;4.35;2.55;;;6.10;99.90;;;;;;5092375;28;20180;-60
2021/05/06 09:50:59;;;;;;;8.43;2.80;;;6.10;99.90;;;;;;5092947;28;20181;-61
2021/05/06 09:53:29;;;;;;;7.28;2.72;;;6.20;99.90;;;;;;5093463;28;20189;-61
2021/05/06 09:55:56;;;;;;;4.22;2.33;;;6.20;99.90;;;;;;5093203;28;20184;-61
2021/05/06 09:58:24;;;;;;;4.75;2.30;;;6.20;99.90;;;;;;5090619;28;20177;-61
2021/05/06 10:00:50;;;;;;;4.45;2.28;;;6.10;99.90;;;;;;5073684;28;20181;-61
2021/05/06 10:03:18;;;;;;;4.00;2.15;;;6.00;99.90;;;;;;5073900;28;20213;-61
2021/05/06 10:05:44;;;;;;;4.82;2.33;;;5.90;99.90;;;;;;5093370;28;20173;-61
2021/05/06 10:08:11;;;;;;;2.78;1.98;;;5.90;99.90;;;;;;5093243;28;20182;-61
2021/05/06 10:10:38;;;;;;;6.68;2.42;;;5.90;99.90;;;;;;5089572;28;20185;-61
2021/05/06 10:13:05;;;;;;;8.60;3.65;;;6.00;99.90;;;;;;5093086;28;20180;-61
2021/05/06 10:15:31;;;;;;;4.85;2.53;;;5.90;99.90;;;;;;5092940;28;20523;-61
2021/05/06 10:17:58;;;;;;;4.75;2.30;;;5.90;99.90;;;;;;5092838;28;20182;-61
2021/05/06 10:20:25;;;;;;;4.43;2.35;;;6.00;99.90;;;;;;5092745;28;20173;-62
2021/05/06 10:22:52;;;;;;;4.40;2.30;;;6.00;99.90;;;;;;5093024;28;20212;-61
2021/05/06 10:25:22;;;;;;;3.30;2.45;;;6.10;99.90;;;;;;5092424;28;20639;-61
2021/05/06 10:27:49;;;;;;;5.47;2.70;;;6.20;99.90;;;;;;5092916;28;20185;-61
2021/05/06 10:30:15;;;;;;;4.28;2.50;;;6.20;99.90;;;;;;5091518;28;20179;-62
2021/05/06 10:32:42;;;;;;;6.65;2.92;;;6.30;99.90;;;;;;5093069;28;20196;-61
2021/05/06 10:35:10;;;;;;;4.53;2.30;;;6.30;99.90;;;;;;5096929;28;20212;-61
2021/05/06 10:37:38;;;;;;;4.65;2.70;;;6.20;99.90;;;;;;5099065;28;20184;-61
2021/05/06 10:40:22;;;;;;;3.47;2.28;;;6.30;99.90;;;;;;5100242;28;20181;-62
2021/05/06 10:42:52;;;;;;;3.25;2.00;;;6.20;99.90;;;;;;5092113;28;20177;-62
2021/05/06 10:45:18;;;;;;;7.68;4.63;;;6.30;99.90;;;;;;5075012;28;20196;-62
2021/05/06 10:47:46;;;;;;;190.45;49.45;;;6.40;99.90;;;;;;5092215;28;20529;-62
2021/05/06 10:50:16;;;;;;;29.83;12.80;;;6.60;99.90;;;;;;5092391;28;20173;-62
2021/05/06 10:52:53;;;;;;;8.38;3.58;;;6.70;99.90;;;;;;5091319;28;20191;-61
2021/05/06 10:55:46;;;;;;;3.55;2.55;;;6.80;99.90;;;;;;5090437;28;20172;-61
2021/05/06 10:58:27;;;;;;;6.45;2.83;;;6.80;99.90;;;;;;5092247;28;20538;-61
2021/05/06 11:01:02;;;;;;;4.20;2.47;;;6.70;99.90;;;;;;5092821;28;20243;-61
2021/05/06 11:03:28;;;;;;;4.18;2.60;;;6.70;99.90;;;;;;5090723;28;20196;-61
2021/05/06 11:05:55;;;;;;;4.30;2.88;;;6.70;99.90;;;;;;5092260;28;20181;-61
2021/05/06 11:08:21;;;;;;;5.88;2.95;;;6.70;99.90;;;;;;5073721;28;20169;-61
2021/05/06 11:10:47;;;;;;;7.13;3.38;;;6.80;99.90;;;;;;5092322;28;20212;-61
2021/05/06 11:13:14;;;;;;;5.30;3.17;;;6.90;99.90;;;;;;5090874;28;20200;-61
2021/05/06 11:15:40;;;;;;;4.90;2.78;;;7.10;99.90;;;;;;5090510;28;20169;-61
2021/05/06 11:18:11;;;;;;;5.40;2.75;;;7.10;99.90;;;;;;5090062;28;20169;-61
2021/05/06 11:20:45;;;;;;;9.35;2.50;;;7.10;99.90;;;;;;5089822;28;20180;-62
2021/05/06 11:23:21;;;;;;;4.50;2.67;;;7.10;99.90;;;;;;5091118;28;20232;-61
2021/05/06 11:25:49;;;;;;;3.83;2.30;;;7.10;99.90;;;;;;5090522;28;20168;-61
2021/05/06 11:28:18;;;;;;;3.38;2.38;;;6.90;99.90;;;;;;5091515;28;20181;-61
2021/05/06 11:30:46;;;;;;;3.28;2.22;;;6.80;99.90;;;;;;5094809;28;20177;-62
2021/05/06 11:33:30;;;;;;;5.47;2.90;;;6.70;99.90;;;;;;5091849;28;20191;-60
2021/05/06 11:36:16;;;;;;;4.97;2.55;;;6.70;99.90;;;;;;5082567;28;20681;-61
2021/05/06 11:39:08;;;;;;;3.88;1.70;;;6.80;99.90;;;;;;5091431;28;20184;-61
2021/05/06 11:41:34;;;;;;;2.65;1.85;;;6.90;99.90;;;;;;5088805;28;20193;-60
2021/05/06 11:44:08;;;;;;;4.22;2.10;;;7.00;99.90;;;;;;5092022;28;20205;-61
2021/05/06 11:46:42;;;;;;;3.80;2.10;;;7.00;99.90;;;;;;5090602;28;20180;-63
2021/05/06 11:49:13;;;;;;;2.97;2.17;;;7.20;99.90;;;;;;5091403;28;20176;-62
2021/05/06 11:51:43;;;;;;;5.50;2.05;;;7.30;99.90;;;;;;5091535;28;20615;-62
2021/05/06 11:54:10;;;;;;;3.63;2.03;;;7.40;99.90;;;;;;5091505;28;20165;-62
2021/05/06 11:56:39;;;;;;;2.75;1.75;;;7.50;99.90;;;;;;5089655;28;20303;-62
2021/05/06 11:59:08;;;;;;;2.50;1.70;;;7.40;99.90;;;;;;5090566;28;20184;-61
2021/05/06 12:01:34;;;;;;;4.30;2.05;;;7.30;99.90;;;;;;5090054;28;20177;-61
2021/05/06 12:04:00;;;;;;;2.53;1.73;;;7.20;99.90;;;;;;5092077;28;20205;-61
2021/05/06 12:06:31;;;;;;;5.63;1.40;;;7.10;99.90;;;;;;5090740;28;20180;-61
2021/05/06 12:08:57;;;;;;;3.33;1.95;;;7.00;99.90;;;;;;5091325;28;20629;-61
2021/05/06 12:11:33;;;;;;;2.83;1.73;;;6.80;99.90;;;;;;5091376;28;20200;-61
2021/05/06 12:14:00;;;;;;;5.88;1.95;;;6.80;99.90;;;;;;5091309;28;20188;-61
2021/05/06 12:16:27;;;;;;;4.32;2.22;;;6.90;99.90;;;;;;5090945;28;20177;-61
2021/05/06 12:18:57;;;;;;;3.75;2.15;;;7.10;99.90;;;;;;5091179;28;20181;-62
2021/05/06 12:21:31;;;;;;;5.50;2.53;;;7.30;99.90;;;;;;5090052;28;20176;-61
2021/05/06 12:23:58;;;;;;;6.68;2.67;;;7.50;99.90;;;;;;5090483;28;20204;-62
2021/05/06 12:26:24;;;;;;;3.92;2.72;;;7.80;99.90;;;;;;5090987;28;20181;-62
2021/05/06 12:28:50;;;;;;;7.40;3.17;;;8.00;99.90;;;;;;5089332;28;20189;-62
2021/05/06 12:31:16;;;;;;;5.15;3.08;;;8.20;99.90;;;;;;5090671;28;20181;-62
2021/05/06 12:33:42;;;;;;;3.45;2.75;;;8.40;99.90;;;;;;5093549;28;20178;-61
2021/05/06 12:36:11;;;;;;;3.38;2.53;;;8.40;99.90;;;;;;5093623;28;20213;-62
2021/05/06 12:38:38;;;;;;;4.53;2.65;;;8.40;99.90;;;;;;5099670;28;20656;-61
2021/05/06 12:41:05;;;;;;;4.78;2.55;;;8.40;99.90;;;;;;5095186;28;20193;-62
2021/05/06 12:43:36;;;;;;;4.47;2.50;;;8.30;99.90;;;;;;5095161;28;20208;-62
2021/05/06 12:46:04;;;;;;;3.38;2.30;;;8.30;99.90;;;;;;5094819;28;20185;-62
2021/05/06 12:48:39;;;;;;;4.00;2.50;;;8.30;99.90;;;;;;5093861;28;20203;-62
2021/05/06 12:51:06;;;;;;;5.40;2.30;;;8.40;99.90;;;;;;5094495;28;20173;-62
2021/05/06 12:53:32;;;;;;;3.92;2.60;;;8.30;99.90;;;;;;5095196;28;20618;-62
2021/05/06 12:55:59;;;;;;;3.35;2.22;;;8.40;99.90;;;;;;5094609;28;20169;-61
2021/05/06 12:58:29;;;;;;;3.58;1.75;;;8.40;99.90;;;;;;5094191;28;20178;-62
2021/05/06 13:00:58;;;;;;;2.55;1.60;;;8.30;99.90;;;;;;5094186;28;20177;-61
2021/05/06 13:03:29;;;;;;;3.03;1.90;;;8.20;99.90;;;;;;5097998;28;20188;-62
2021/05/06 13:06:01;;;;;;;2.45;1.50;;;8.00;99.90;;;;;;5100783;28;20523;-62
2021/05/06 13:08:34;;;;;;;2.10;1.40;;;8.10;99.90;;;;;;5099406;28;20176;-63
2021/05/06 13:11:01;;;;;;;1.88;1.67;;;8.20;99.90;;;;;;5101980;28;20621;-63
2021/05/06 13:13:36;;;;;;;4.45;1.85;;;8.40;99.90;;;;;;5100701;28;20184;-63
2021/05/06 13:16:03;;;;;;;3.08;1.60;;;8.40;99.90;;;;;;5098076;28;20183;-63
2021/05/06 13:18:29;;;;;;;3.20;2.08;;;8.60;99.90;;;;;;5092816;28;20169;-63
2021/05/06 13:20:55;;;;;;;4.15;1.88;;;8.60;99.90;;;;;;5094564;28;20189;-62
2021/05/06 13:23:30;;;;;;;4.13;2.15;;;8.60;99.90;;;;;;5096153;28;20200;-62
2021/05/06 13:25:57;;;;;;;2.03;1.50;;;8.50;99.90;;;;;;5094326;28;20161;-63
2021/05/06 13:28:33;;;;;;;4.05;1.90;;;8.50;99.90;;;;;;5094452;28;20620;-63
2021/05/06 13:31:06;;;;;;;3.88;2.40;;;8.60;99.90;;;;;;5094289;28;20533;-63
2021/05/06 13:33:32;;;;;;;3.58;2.45;;;8.70;99.90;;;;;;5092817;28;20177;-62
2021/05/06 13:36:06;;;;;;;4.63;2.47;;;8.70;99.90;;;;;;5096590;28;20216;-62
2021/05/06 13:38:53;;;;;;;4.88;2.60;;;8.80;99.90;;;;;;5106889;28;20196;-62
2021/05/06 13:41:24;;;;;;;2.53;2.08;;;8.70;99.90;;;;;;5074099;28;20170;-61
2021/05/06 13:43:51;;;;;;;11.50;3.10;;;8.50;99.90;;;;;;5072861;28;20205;-62
2021/05/06 13:46:17;;;;;;;4.53;2.88;;;8.30;99.90;;;;;;5073969;28;20162;-61
2021/05/06 13:48:43;;;;;;;5.75;2.45;;;8.10;99.90;;;;;;5088145;28;20188;-61
2021/05/06 13:51:10;;;;;;;5.60;2.20;;;7.70;99.90;;;;;;5092413;28;20550;-61
2021/05/06 13:53:37;;;;;;;6.20;2.30;;;7.60;99.90;;;;;;5092784;28;20169;-62
2021/05/06 13:56:04;;;;;;;4.75;2.47;;;7.40;99.90;;;;;;5093517;28;20185;-62
2021/05/06 13:58:30;;;;;;;4.85;2.40;;;7.30;99.90;;;;;;5092225;28;20166;-62
2021/05/06 14:00:57;;;;;;;6.28;2.58;;;7.30;99.90;;;;;;5093262;28;20185;-62
2021/05/06 14:03:23;;;;;;;4.40;2.33;;;7.40;99.90;;;;;;5084269;28;20630;-63
2021/05/06 14:05:49;;;;;;;4.00;2.33;;;7.50;99.90;;;;;;5093039;28;20181;-62
2021/05/06 14:08:16;;;;;;;3.30;1.90;;;7.60;99.90;;;;;;5093019;28;20563;-63
2021/05/06 14:10:42;;;;;;;3.25;1.92;;;7.60;99.90;;;;;;5093101;28;20180;-64
2021/05/06 14:13:08;;;;;;;4.32;1.85;;;7.60;99.90;;;;;;5093223;28;20185;-62
2021/05/06 14:15:35;;;;;;;5.30;2.55;;;7.60;99.90;;;;;;5091809;28;20181;-62
2021/05/06 14:18:01;;;;;;;4.32;2.67;;;7.60;99.90;;;;;;5092385;28;20211;-62
2021/05/06 14:20:27;;;;;;;3.30;2.40;;;7.60;99.90;;;;;;5082766;28;20681;-62
2021/05/06 14:22:53;;;;;;;5.43;2.45;;;7.60;99.90;;;;;;5093184;28;20213;-63
2021/05/06 14:25:19;;;;;;;3.72;2.60;;;7.70;99.90;;;;;;5093537;28;20665;-62
2021/05/06 14:27:45;;;;;;;6.15;3.03;;;7.80;99.90;;;;;;5092719;28;20527;-63
2021/05/06 14:30:12;;;;;;;5.88;2.55;;;7.90;99.90;;;;;;5092942;28;20177;-62
2021/05/06 14:32:38;;;;;;;6.18;2.80;;;7.90;99.90;;;;;;5092435;28;20652;-62
2021/05/06 14:35:04;;;;;;;5.18;2.63;;;8.00;99.90;;;;;;5091810;28;20220;-62
2021/05/06 14:37:30;;;;;;;3.40;2.08;;;8.10;99.90;;;;;;5092363;28;20193;-62
2021/05/06 14:39:57;;;;;;;2.42;1.92;;;8.10;99.90;;;;;;5092113;28;20544;-61
2021/05/06 14:42:24;;;;;;;3.00;2.15;;;8.00;99.90;;;;;;5095095;28;20172;-61
2021/05/06 14:44:50;;;;;;;5.28;2.67;;;7.90;99.90;;;;;;5096939;28;20200;-61
2021/05/06 14:47:16;;;;;;;3.45;1.65;;;7.90;99.90;;;;;;5092596;28;20185;-61
2021/05/06 14:49:43;;;;;;;2.55;1.85;;;7.90;99.90;;;;;;5090212;28;20189;-61
2021/05/06 14:52:09;;;;;;;6.40;1.92;;;7.80;99.90;;;;;;5092367;28;20181;-62
2021/05/06 14:54:35;;;;;;;5.45;2.10;;;7.70;99.90;;;;;;5090677;28;20538;-61
2021/05/06 14:57:01;;;;;;;2.70;1.90;;;7.60;99.90;;;;;;5090929;28;20626;-62
2021/05/06 14:59:27;;;;;;;4.28;2.35;;;7.70;99.90;;;;;;5091123;28;20547;-62
2021/05/06 15:01:53;;;;;;;3.67;2.20;;;7.70;99.90;;;;;;5088970;28;20177;-61
2021/05/06 15:04:19;;;;;;;4.70;2.60;;;7.90;99.90;;;;;;5091068;28;20204;-62
2021/05/06 15:06:45;;;;;;;5.18;2.65;;;8.10;99.90;;;;;;5092061;28;20538;-62
2021/05/06 15:09:12;;;;;;;4.65;2.90;;;8.20;99.90;;;;;;5091273;28;20196;-61
2021/05/06 15:11:38;;;;;;;3.05;2.15;;;8.20;99.90;;;;;;5091936;28;20176;-61
2021/05/06 15:14:04;;;;;;;4.50;2.38;;;8.20;99.90;;;;;;5090669;28;20184;-61
2021/05/06 15:16:30;;;;;;;3.42;1.92;;;8.00;99.90;;;;;;5092296;28;20185;-62
2021/05/06 15:18:57;;;;;;;3.05;1.80;;;7.90;99.90;;;;;;5090796;28;20193;-61
2021/05/06 15:21:23;;;;;;;4.60;2.00;;;7.80;99.90;;;;;;5091488;28;20181;-61
2021/05/06 15:23:49;;;;;;;4.07;2.25;;;7.70;99.90;;;;;;5091515;28;20653;-62
2021/05/06 15:26:15;;;;;;;3.17;1.90;;;7.60;99.90;;;;;;5091346;28;20189;-62
2021/05/06 15:28:41;;;;;;;2.65;1.83;;;7.50;99.90;;;;;;5090916;28;20560;-61
2021/05/06 15:31:07;;;;;;;2.85;1.80;;;7.50;99.90;;;;;;5093912;28;20184;-63
2021/05/06 15:33:33;;;;;;;3.30;1.60;;;7.50;99.90;;;;;;5091577;28;20541;-62
2021/05/06 15:35:59;;;;;;;2.38;1.75;;;7.60;99.90;;;;;;5090371;28;20217;-62
2021/05/06 15:38:25;;;;;;;3.00;1.90;;;7.60;99.90;;;;;;5093567;28;20231;-62
2021/05/06 15:40:51;;;;;;;3.80;1.90;;;7.80;99.90;;;;;;5090674;28;20177;-62
2021/05/06 15:43:18;;;;;;;2.92;1.92;;;8.00;99.90;;;;;;5090727;28;20645;-62
2021/05/06 15:45:45;;;;;;;3.70;2.13;;;8.10;99.90;;;;;;5090156;28;20208;-62
2021/05/06 15:48:12;;;;;;;2.85;1.92;;;8.10;99.90;;;;;;5091005;28;20572;-60
2021/05/06 15:50:38;;;;;;;3.40;2.30;;;7.90;99.90;;;;;;5087868;28;20193;-61
2021/05/06 15:53:05;;;;;;;2.63;2.03;;;8.00;99.90;;;;;;5090829;28;20193;-66
2021/05/06 15:55:32;;;;;;;3.80;2.40;;;8.10;99.90;;;;;;5096421;28;20184;-62
2021/05/06 15:58:01;;;;;;;2.40;1.98;;;8.20;99.90;;;;;;5096522;28;20565;-62
2021/05/06 16:00:27;;;;;;;2.83;2.15;;;8.10;99.90;;;;;;5096463;28;20652;-62
2021/05/06 16:03:02;;;;;;;2.90;2.40;;;8.10;99.90;;;;;;5092058;28;20181;-65
2021/05/06 16:05:29;;;;;;;3.60;2.35;;;8.10;99.90;;;;;;5091461;28;20204;-62
2021/05/06 16:07:58;;;;;;;4.72;2.05;;;8.10;99.90;;;;;;5092510;28;20193;-63
2021/05/06 16:10:24;;;;;;;3.83;2.40;;;8.10;99.90;;;;;;5095414;28;20526;-61
2021/05/06 16:12:51;;;;;;;3.28;2.40;;;8.10;99.90;;;;;;5093816;28;20188;-61
2021/05/06 16:15:17;;;;;;;4.80;2.13;;;8.00;99.90;;;;;;5095270;28;20189;-62
2021/05/06 16:17:43;;;;;;;4.88;2.75;;;8.00;99.90;;;;;;5094284;28;20184;-61
2021/05/06 16:20:18;;;;;;;4.65;2.80;;;7.90;99.90;;;;;;5095177;28;20642;-61
2021/05/06 16:22:45;;;;;;;6.57;2.35;;;8.00;99.90;;;;;;5093021;28;20205;-61
2021/05/06 16:25:12;;;;;;;5.10;2.58;;;7.90;99.90;;;;;;5094733;28;20213;-60
2021/05/06 16:27:39;;;;;;;3.72;2.50;;;7.80;99.90;;;;;;5094960;28;20542;-61
2021/05/06 16:30:06;;;;;;;4.25;2.35;;;7.50;99.90;;;;;;5095094;28;20195;-61
2021/05/06 16:32:32;;;;;;;3.63;2.60;;;7.40;99.90;;;;;;5094549;28;20199;-62
2021/05/06 16:35:00;;;;;;;5.05;3.10;;;7.40;99.90;;;;;;5094173;28;20674;-62
2021/05/06 16:44:52;;;;;;;6.75;3.20;;;7.40;99.90;;;;;;5092864;28;20716;-62
2021/05/06 16:47:18;;;;;;;6.05;2.85;;;7.40;99.90;;;;;;5093706;28;20173;-62
2021/05/06 16:49:44;;;;;;;4.07;2.78;;;7.40;99.90;;;;;;5094034;28;20204;-61